createdAt,value
2022-08-31T00:00:20.023Z,100.00
2022-08-31T00:03:05.324Z,100.00
2022-08-31T00:05:31.852Z,100.00
2022-08-31T00:07:58.460Z,100.00
2022-08-31T00:10:32.287Z,100.00
2022-08-31T00:13:06.966Z,100.00
2022-08-31T00:15:38.553Z,100.00
2022-08-31T00:18:08.784Z,100.00
2022-08-31T00:20:36.783Z,100.00
2022-08-31T00:23:10.086Z,100.00
2022-08-31T00:25:38.143Z,100.00
2022-08-31T00:28:07.246Z,100.00
2022-08-31T00:30:34.301Z,100.00
2022-08-31T00:33:01.155Z,100.00
2022-08-31T00:35:30.068Z,100.00
2022-08-31T00:37:56.961Z,100.00
2022-08-31T00:40:24.814Z,100.00
2022-08-31T00:42:52.060Z,100.00
2022-08-31T00:45:19.120Z,100.00
2022-08-31T00:47:45.798Z,100.00
2022-08-31T00:50:15.728Z,100.00
2022-08-31T00:52:46.621Z,100.00
2022-08-31T00:55:17.927Z,100.00
2022-08-31T00:57:48.089Z,100.00
2022-08-31T01:00:18.636Z,100.00
2022-08-31T01:02:46.091Z,100.00
2022-08-31T01:05:14.306Z,100.00
2022-08-31T01:07:42.207Z,100.00
2022-08-31T01:10:11.677Z,100.00
2022-08-31T01:12:42.395Z,100.00
2022-08-31T01:15:13.308Z,100.00
2022-08-31T01:17:41.508Z,100.00
2022-08-31T01:20:20.318Z,100.00
2022-08-31T01:22:52.886Z,100.00
2022-08-31T01:25:20.072Z,100.00
2022-08-31T01:27:47.141Z,100.00
2022-08-31T01:30:22.149Z,100.00
2022-08-31T01:32:49.156Z,100.00
2022-08-31T01:35:15.762Z,100.00
2022-08-31T01:37:42.469Z,100.00
2022-08-31T01:40:10.802Z,100.00
2022-08-31T01:42:37.450Z,100.00
2022-08-31T01:45:11.876Z,100.00
2022-08-31T01:47:43.055Z,100.00
2022-08-31T01:50:11.794Z,100.00
2022-08-31T01:52:38.628Z,100.00
2022-08-31T01:55:07.495Z,100.00
2022-08-31T01:57:34.755Z,100.00
2022-08-31T02:00:06.261Z,100.00
2022-08-31T02:02:32.921Z,100.00
2022-08-31T02:04:59.546Z,100.00
2022-08-31T02:07:26.657Z,100.00
2022-08-31T02:09:54.583Z,100.00
2022-08-31T02:12:21.128Z,100.00
2022-08-31T02:14:47.747Z,100.00
2022-08-31T02:17:14.445Z,100.00
2022-08-31T02:19:43.302Z,100.00
2022-08-31T02:22:09.874Z,100.00
2022-08-31T02:24:36.503Z,100.00
2022-08-31T02:27:03.351Z,100.00
2022-08-31T02:29:29.966Z,100.00
2022-08-31T02:31:58.536Z,100.00
2022-08-31T02:34:25.689Z,100.00
2022-08-31T02:36:52.483Z,100.00
2022-08-31T02:39:19.095Z,100.00
2022-08-31T02:41:45.666Z,100.00
2022-08-31T02:44:14.423Z,100.00
2022-08-31T02:46:41.165Z,100.00
2022-08-31T02:49:07.954Z,100.00
2022-08-31T02:51:34.537Z,100.00
2022-08-31T02:54:01.069Z,100.00
2022-08-31T02:56:27.671Z,100.00
2022-08-31T02:58:55.252Z,100.00
2022-08-31T03:01:23.829Z,100.00
2022-08-31T03:03:50.880Z,100.00
2022-08-31T03:06:18.895Z,100.00
2022-08-31T03:08:46.654Z,100.00
2022-08-31T03:11:15.994Z,100.00
2022-08-31T03:13:43.148Z,100.00
2022-08-31T03:16:12.311Z,100.00
2022-08-31T03:18:38.993Z,100.00
2022-08-31T03:21:05.820Z,100.00
2022-08-31T03:23:32.406Z,100.00
2022-08-31T03:25:59.873Z,100.00
2022-08-31T03:28:26.446Z,100.00
2022-08-31T03:30:53.027Z,100.00
2022-08-31T03:33:19.686Z,100.00
2022-08-31T03:35:46.339Z,100.00
2022-08-31T03:38:14.013Z,100.00
2022-08-31T03:40:42.421Z,100.00
2022-08-31T03:43:11.374Z,100.00
2022-08-31T03:45:41.210Z,100.00
2022-08-31T03:48:12.478Z,100.00
2022-08-31T03:50:40.114Z,100.00
2022-08-31T03:53:08.446Z,100.00
2022-08-31T03:55:38.379Z,100.00
2022-08-31T03:58:05.981Z,100.00
2022-08-31T04:00:33.048Z,100.00
2022-08-31T04:03:01.588Z,100.00
2022-08-31T04:05:34.265Z,100.00
2022-08-31T04:08:00.857Z,100.00
2022-08-31T04:10:27.427Z,100.00
2022-08-31T04:12:54.057Z,100.00
2022-08-31T04:15:22.713Z,100.00
2022-08-31T04:17:52.149Z,100.00
2022-08-31T04:20:29.549Z,100.00
2022-08-31T04:22:56.834Z,100.00
2022-08-31T04:25:23.406Z,100.00
2022-08-31T04:27:50.408Z,100.00
2022-08-31T04:30:17.924Z,100.00
2022-08-31T04:32:44.510Z,100.00
2022-08-31T04:35:11.263Z,100.00
2022-08-31T04:37:39.824Z,100.00
2022-08-31T04:40:20.313Z,100.00
2022-08-31T04:42:52.396Z,100.00
2022-08-31T04:45:21.851Z,100.00
2022-08-31T04:47:50.479Z,100.00
2022-08-31T04:50:18.224Z,100.00
2022-08-31T04:52:58.380Z,100.00
2022-08-31T04:55:32.050Z,100.00
2022-08-31T04:57:58.665Z,100.00
2022-08-31T05:00:25.951Z,100.00
2022-08-31T05:02:54.154Z,100.00
2022-08-31T05:05:20.832Z,100.00
2022-08-31T05:07:49.561Z,100.00
2022-08-31T05:10:16.223Z,100.00
2022-08-31T05:12:44.433Z,100.00
2022-08-31T05:15:11.858Z,100.00
2022-08-31T05:17:39.213Z,100.00
2022-08-31T05:20:06.722Z,100.00
2022-08-31T05:22:33.845Z,100.00
2022-08-31T05:25:01.003Z,100.00
2022-08-31T05:27:28.416Z,100.00
2022-08-31T05:29:55.044Z,100.00
2022-08-31T05:32:21.945Z,100.00
2022-08-31T05:34:49.523Z,100.00
2022-08-31T05:37:16.260Z,100.00
2022-08-31T05:39:43.362Z,100.00
2022-08-31T05:42:10.780Z,100.00
2022-08-31T05:44:37.407Z,100.00
2022-08-31T05:47:07.099Z,100.00
2022-08-31T05:49:34.967Z,100.00
2022-08-31T05:52:02.067Z,100.00
2022-08-31T05:54:31.328Z,100.00
2022-08-31T05:57:12.311Z,100.00
2022-08-31T05:59:39.854Z,100.00
2022-08-31T06:02:09.678Z,100.00
2022-08-31T06:04:36.428Z,100.00
2022-08-31T06:07:03.423Z,100.00
2022-08-31T06:09:30.242Z,100.00
2022-08-31T06:11:56.877Z,100.00
2022-08-31T06:14:23.746Z,100.00
2022-08-31T06:16:50.791Z,100.00
2022-08-31T06:19:17.734Z,100.00
2022-08-31T06:21:50.067Z,100.00
2022-08-31T06:24:21.728Z,100.00
2022-08-31T06:26:58.984Z,100.00
2022-08-31T06:29:27.597Z,100.00
2022-08-31T06:31:54.715Z,100.00
2022-08-31T06:34:29.189Z,100.00
2022-08-31T06:36:56.059Z,100.00
2022-08-31T06:39:23.532Z,100.00
2022-08-31T06:41:52.722Z,100.00
2022-08-31T06:44:24.083Z,100.00
2022-08-31T06:46:51.964Z,100.00
2022-08-31T06:49:22.946Z,100.00
2022-08-31T06:51:52.501Z,100.00
2022-08-31T06:54:29.510Z,100.00
2022-08-31T06:56:58.705Z,100.00
2022-08-31T06:59:28.885Z,100.00
2022-08-31T07:02:12.574Z,100.00
2022-08-31T07:04:39.642Z,100.00
2022-08-31T07:07:09.025Z,100.00
2022-08-31T07:09:35.830Z,100.00
2022-08-31T07:12:02.771Z,100.00
2022-08-31T07:14:29.440Z,100.00
2022-08-31T07:16:58.177Z,100.00
2022-08-31T07:19:26.556Z,100.00
2022-08-31T07:21:56.554Z,100.00
2022-08-31T07:24:28.650Z,100.00
2022-08-31T07:26:58.836Z,100.00
2022-08-31T07:29:30.473Z,100.00
2022-08-31T07:31:59.527Z,100.00
2022-08-31T07:34:30.198Z,100.00
2022-08-31T07:37:17.481Z,100.00
2022-08-31T07:40:07.609Z,97.70
2022-08-31T07:42:43.256Z,94.93
2022-08-31T07:45:22.619Z,94.40
2022-08-31T07:47:55.101Z,90.35
2022-08-31T07:50:23.196Z,93.94
2022-08-31T07:52:54.510Z,90.94
2022-08-31T07:55:26.768Z,90.48
2022-08-31T07:57:55.184Z,91.77
2022-08-31T08:00:25.497Z,94.10
2022-08-31T08:02:54.143Z,99.30
2022-08-31T08:05:27.659Z,100.00
2022-08-31T08:07:58.460Z,100.00
2022-08-31T08:10:27.675Z,100.00
2022-08-31T08:12:59.430Z,100.00
2022-08-31T08:15:26.808Z,100.00
2022-08-31T08:17:53.428Z,100.00
2022-08-31T08:20:34.519Z,100.00
2022-08-31T08:23:14.376Z,100.00
2022-08-31T08:25:55.421Z,100.00
2022-08-31T08:28:40.982Z,100.00
2022-08-31T08:31:13.081Z,100.00
2022-08-31T08:33:39.823Z,100.00
2022-08-31T08:36:08.467Z,100.00
2022-08-31T08:38:39.447Z,100.00
2022-08-31T08:41:12.853Z,100.00
2022-08-31T08:43:44.149Z,91.28
2022-08-31T08:46:33.859Z,87.96
2022-08-31T08:49:15.414Z,85.22
2022-08-31T08:51:42.875Z,81.28
2022-08-31T08:54:20.458Z,77.48
2022-08-31T08:56:50.012Z,74.28
2022-08-31T08:59:19.526Z,73.75
2022-08-31T09:01:48.968Z,70.62
2022-08-31T09:04:44.857Z,69.92
2022-08-31T09:07:17.198Z,69.65
2022-08-31T09:10:00.861Z,62.20
2022-08-31T09:12:58.124Z,60.14
2022-08-31T09:15:38.699Z,57.45
2022-08-31T09:18:14.088Z,55.15
2022-08-31T09:20:41.292Z,50.60
2022-08-31T09:23:08.185Z,52.08
2022-08-31T09:25:47.839Z,52.49
2022-08-31T09:28:15.275Z,52.67
2022-08-31T09:30:52.344Z,51.55
2022-08-31T09:33:27.823Z,50.17
2022-08-31T09:36:15.346Z,47.15
2022-08-31T09:38:46.819Z,48.70
2022-08-31T09:41:33.364Z,49.79
2022-08-31T09:44:24.135Z,49.33
2022-08-31T09:46:54.655Z,47.26
2022-08-31T09:49:25.704Z,48.19
2022-08-31T09:51:52.514Z,46.50
2022-08-31T09:54:46.884Z,44.80
2022-08-31T09:57:14.210Z,45.25
2022-08-31T09:59:44.566Z,43.36
2022-08-31T10:02:23.134Z,44.94
2022-08-31T10:04:56.534Z,43.99
2022-08-31T10:07:50.483Z,45.03
2022-08-31T10:10:31.762Z,43.11
2022-08-31T10:13:13.405Z,44.67
2022-08-31T10:15:54.261Z,41.22
2022-08-31T10:19:06.645Z,43.42
2022-08-31T10:21:53.464Z,43.98
2022-08-31T10:24:28.470Z,45.06
2022-08-31T10:27:22.526Z,43.15
2022-08-31T10:30:10.162Z,41.85
2022-08-31T10:32:47.624Z,40.78
2022-08-31T10:35:26.831Z,39.41
2022-08-31T10:38:14.779Z,40.00
2022-08-31T10:40:50.981Z,39.71
2022-08-31T10:43:29.247Z,38.65
2022-08-31T10:45:59.765Z,41.58
2022-08-31T10:48:27.496Z,44.63
2022-08-31T10:51:05.763Z,45.66
2022-08-31T10:54:20.572Z,46.87
2022-08-31T10:56:59.343Z,46.17
2022-08-31T10:59:58.725Z,44.43
2022-08-31T11:03:04.801Z,43.69
2022-08-31T11:05:37.627Z,44.07
2022-08-31T11:08:22.964Z,46.61
2022-08-31T11:10:52.875Z,44.77
2022-08-31T11:13:38.615Z,45.43
2022-08-31T11:16:16.405Z,44.09
2022-08-31T11:19:11.689Z,40.99
2022-08-31T11:22:08.879Z,41.62
2022-08-31T11:25:01.727Z,42.15
2022-08-31T11:27:37.006Z,43.38
2022-08-31T11:30:27.298Z,43.26
2022-08-31T11:32:57.465Z,45.66
2022-08-31T11:36:06.645Z,44.59
2022-08-31T11:38:57.125Z,42.28
2022-08-31T11:41:46.859Z,41.96
2022-08-31T11:44:29.879Z,41.75
2022-08-31T11:47:12.908Z,40.71
2022-08-31T11:49:50.165Z,42.65
2022-08-31T11:52:29.255Z,42.85
2022-08-31T11:55:00.919Z,42.17
2022-08-31T11:57:35.627Z,40.73
2022-08-31T12:00:21.760Z,40.84
2022-08-31T12:03:09.367Z,43.61
2022-08-31T12:05:50.960Z,43.45
2022-08-31T12:08:18.544Z,40.13
2022-08-31T12:10:52.849Z,41.23
2022-08-31T12:13:36.893Z,41.86
2022-08-31T12:16:19.035Z,42.82
2022-08-31T12:19:06.569Z,43.84
2022-08-31T12:22:06.863Z,41.20
2022-08-31T12:24:49.781Z,41.55
2022-08-31T12:27:25.733Z,43.38
2022-08-31T12:30:21.090Z,46.28
2022-08-31T12:32:59.149Z,42.76
2022-08-31T12:35:28.822Z,41.17
2022-08-31T12:38:09.168Z,39.66
2022-08-31T12:40:51.197Z,39.43
2022-08-31T12:43:22.693Z,38.94
2022-08-31T12:46:01.144Z,40.46
2022-08-31T12:48:39.584Z,38.93
2022-08-31T12:51:48.138Z,37.18
2022-08-31T12:54:33.351Z,37.03
2022-08-31T12:57:07.017Z,37.71
2022-08-31T13:00:08.019Z,39.24
2022-08-31T13:02:43.979Z,39.37
2022-08-31T13:05:19.439Z,37.69
2022-08-31T13:07:46.202Z,37.04
2022-08-31T13:10:27.273Z,35.75
2022-08-31T13:12:58.893Z,36.20
2022-08-31T13:15:44.446Z,36.16
2022-08-31T13:18:26.558Z,35.95
2022-08-31T13:21:05.983Z,33.17
2022-08-31T13:23:42.267Z,34.83
2022-08-31T13:26:20.644Z,33.59
2022-08-31T13:28:53.225Z,37.24
2022-08-31T13:31:26.830Z,36.37
2022-08-31T13:34:00.678Z,34.51
2022-08-31T13:36:33.936Z,34.60
2022-08-31T13:39:11.578Z,34.92
2022-08-31T13:41:57.018Z,34.20
2022-08-31T13:44:27.886Z,34.23
2022-08-31T13:47:03.011Z,33.73
2022-08-31T13:49:38.530Z,32.23
2022-08-31T13:52:14.960Z,33.56
2022-08-31T13:54:44.319Z,33.82
2022-08-31T13:57:25.848Z,35.01
2022-08-31T13:59:54.780Z,34.96
2022-08-31T14:02:37.416Z,35.01
2022-08-31T14:05:11.946Z,33.29
2022-08-31T14:07:46.663Z,34.05
2022-08-31T14:10:20.311Z,34.11
2022-08-31T14:12:47.279Z,35.26
2022-08-31T14:15:21.375Z,36.54
2022-08-31T14:21:16.849Z,40.87
2022-08-31T14:23:37.202Z,41.09
2022-08-31T14:26:18.693Z,42.31
2022-08-31T14:28:50.646Z,44.17
2022-08-31T14:31:49.245Z,43.74
2022-08-31T14:34:25.761Z,43.78
2022-08-31T14:37:19.357Z,44.13
2022-08-31T14:39:50.615Z,40.70
2022-08-31T14:42:30.529Z,39.39
2022-08-31T14:45:05.820Z,38.25
2022-08-31T14:47:36.355Z,37.98
2022-08-31T14:50:09.852Z,38.37
2022-08-31T14:52:43.052Z,38.00
2022-08-31T14:55:11.454Z,36.91
2022-08-31T14:57:47.294Z,38.68
2022-08-31T15:00:23.227Z,40.04
2022-08-31T15:02:53.787Z,40.16
2022-08-31T15:05:23.545Z,40.44
2022-08-31T15:07:55.917Z,41.14
2022-08-31T15:10:26.075Z,41.16
2022-08-31T15:12:55.783Z,41.49
2022-08-31T15:15:22.463Z,41.69
2022-08-31T15:17:51.885Z,42.29
2022-08-31T15:20:21.054Z,43.15
2022-08-31T15:22:48.867Z,43.71
2022-08-31T15:25:22.227Z,43.40
2022-08-31T15:27:51.054Z,42.69
2022-08-31T15:30:20.933Z,41.38
2022-08-31T15:32:48.744Z,42.90
2022-08-31T15:35:20.296Z,43.16
2022-08-31T15:37:56.625Z,42.56
2022-08-31T15:40:29.154Z,42.21
2022-08-31T15:42:56.169Z,41.80
2022-08-31T15:45:23.708Z,42.25
2022-08-31T15:48:18.644Z,41.80
2022-08-31T15:50:57.529Z,40.32
2022-08-31T15:53:30.578Z,41.56
2022-08-31T15:56:08.259Z,41.21
2022-08-31T15:58:39.041Z,39.79
2022-08-31T16:01:14.083Z,40.65
2022-08-31T16:03:42.076Z,41.50
2022-08-31T16:06:41.173Z,41.06
2022-08-31T16:09:09.747Z,41.27
2022-08-31T16:11:40.151Z,41.15
2022-08-31T16:14:11.030Z,41.12
2022-08-31T16:16:40.263Z,42.10
2022-08-31T16:19:10.052Z,42.88
2022-08-31T16:21:44.452Z,44.27
2022-08-31T16:24:14.140Z,45.91
2022-08-31T16:26:43.376Z,50.01
2022-08-31T16:29:13.796Z,50.02
2022-08-31T16:31:42.038Z,49.31
2022-08-31T16:34:09.061Z,49.12
2022-08-31T16:36:35.939Z,49.66
2022-08-31T16:39:04.052Z,49.13
2022-08-31T16:41:32.101Z,49.63
2022-08-31T16:44:18.530Z,50.02
2022-08-31T16:46:46.516Z,50.37
2022-08-31T16:49:31.556Z,49.91
2022-08-31T16:51:58.358Z,49.60
2022-08-31T16:54:28.734Z,48.37
2022-08-31T16:56:58.347Z,47.85
2022-08-31T16:59:29.404Z,48.03
2022-08-31T17:01:56.595Z,47.58
2022-08-31T17:04:50.511Z,46.50
2022-08-31T17:07:14.995Z,47.35
2022-08-31T17:09:42.718Z,45.36
2022-08-31T17:12:13.289Z,46.67
2022-08-31T17:14:47.116Z,45.88
2022-08-31T17:17:19.590Z,46.21
2022-08-31T17:19:47.310Z,47.06
2022-08-31T17:22:23.448Z,47.12
2022-08-31T17:24:56.782Z,47.83
2022-08-31T17:27:23.811Z,48.21
2022-08-31T17:29:52.652Z,47.94
2022-08-31T17:32:27.379Z,48.60
2022-08-31T17:34:57.530Z,48.40
2022-08-31T17:37:36.176Z,49.65
2022-08-31T17:40:08.281Z,50.17
2022-08-31T17:42:35.857Z,51.46
2022-08-31T17:45:05.775Z,51.83
2022-08-31T17:47:33.178Z,52.26
2022-08-31T17:50:00.511Z,53.03
2022-08-31T17:52:30.233Z,54.20
2022-08-31T17:55:01.876Z,54.78
2022-08-31T17:57:29.637Z,54.90
2022-08-31T17:59:57.662Z,55.43
2022-08-31T18:02:32.222Z,56.17
2022-08-31T18:04:59.281Z,57.16
2022-08-31T18:07:28.432Z,57.42
2022-08-31T18:09:55.020Z,57.57
2022-08-31T18:12:22.802Z,58.57
2022-08-31T18:14:49.866Z,60.88
2022-08-31T18:17:17.162Z,61.69
2022-08-31T18:19:45.144Z,62.11
2022-08-31T18:22:14.235Z,65.03
2022-08-31T18:24:42.029Z,66.41
2022-08-31T18:27:10.526Z,62.76
2022-08-31T18:29:38.541Z,62.83
2022-08-31T18:32:07.652Z,61.36
2022-08-31T18:34:37.097Z,61.32
2022-08-31T18:37:04.770Z,61.90
2022-08-31T18:39:55.138Z,62.26
2022-08-31T18:42:45.663Z,62.78
2022-08-31T18:45:15.516Z,63.10
2022-08-31T18:47:43.295Z,62.42
2022-08-31T18:50:10.090Z,61.84
2022-08-31T18:52:39.459Z,62.00
2022-08-31T18:55:07.628Z,62.65
2022-08-31T18:57:34.435Z,62.96
2022-08-31T19:00:14.589Z,63.29
2022-08-31T19:02:43.817Z,63.75
2022-08-31T19:05:12.223Z,64.16
2022-08-31T19:07:41.233Z,65.18
2022-08-31T19:10:14.276Z,65.88
2022-08-31T19:12:42.922Z,67.04
2022-08-31T19:15:12.450Z,68.13
2022-08-31T19:17:41.922Z,69.46
2022-08-31T19:20:10.687Z,70.96
2022-08-31T19:22:38.375Z,72.28
2022-08-31T19:25:07.188Z,72.44
2022-08-31T19:27:35.034Z,72.44
2022-08-31T19:30:01.573Z,71.67
2022-08-31T19:32:28.246Z,70.39
2022-08-31T19:34:54.876Z,69.79
2022-08-31T19:37:23.857Z,70.53
2022-08-31T19:39:50.381Z,72.33
2022-08-31T19:42:17.483Z,73.08
2022-08-31T19:44:55.858Z,74.10
2022-08-31T19:47:38.751Z,73.93
2022-08-31T19:50:13.709Z,74.13
2022-08-31T19:52:40.495Z,74.77
2022-08-31T19:55:09.318Z,73.64
2022-08-31T19:57:37.451Z,74.22
2022-08-31T20:00:07.105Z,73.95
2022-08-31T20:02:33.713Z,74.39
2022-08-31T20:05:02.750Z,74.34
2022-08-31T20:07:29.621Z,74.64
2022-08-31T20:09:56.278Z,73.99
2022-08-31T20:12:22.858Z,73.80
2022-08-31T20:14:49.435Z,74.09
2022-08-31T20:17:15.965Z,74.84
2022-08-31T20:19:42.833Z,76.23
2022-08-31T20:22:09.410Z,77.13
2022-08-31T20:24:43.619Z,75.58
2022-08-31T20:27:14.115Z,76.10
2022-08-31T20:29:41.039Z,77.42
2022-08-31T20:32:08.153Z,77.82
2022-08-31T20:34:35.280Z,78.84
2022-08-31T20:37:05.031Z,78.92
2022-08-31T20:39:35.489Z,78.65
2022-08-31T20:42:21.279Z,79.17
2022-08-31T20:44:49.933Z,80.09
2022-08-31T20:47:35.026Z,79.65
2022-08-31T20:50:07.441Z,79.69
2022-08-31T20:52:35.249Z,79.10
2022-08-31T20:55:04.722Z,78.78
2022-08-31T20:57:33.511Z,79.13
2022-08-31T21:00:03.849Z,78.99
2022-08-31T21:02:32.280Z,79.23
2022-08-31T21:05:10.402Z,80.10
2022-08-31T21:07:45.656Z,80.73
2022-08-31T21:10:12.274Z,81.54
2022-08-31T21:12:38.814Z,82.42
2022-08-31T21:15:08.034Z,82.77
2022-08-31T21:17:34.654Z,83.46
2022-08-31T21:20:01.269Z,83.57
2022-08-31T21:22:27.816Z,83.69
2022-08-31T21:24:59.769Z,83.62
2022-08-31T21:27:29.476Z,84.29
2022-08-31T21:29:56.548Z,84.45
2022-08-31T21:32:23.293Z,84.81
2022-08-31T21:34:49.831Z,85.03
2022-08-31T21:37:16.395Z,85.50
2022-08-31T21:39:42.986Z,85.90
2022-08-31T21:42:09.565Z,86.08
2022-08-31T21:44:38.945Z,86.89
2022-08-31T21:47:14.782Z,87.25
2022-08-31T21:49:43.835Z,88.12
2022-08-31T21:52:11.999Z,87.77
2022-08-31T21:54:40.968Z,87.39
2022-08-31T21:57:07.555Z,87.15
2022-08-31T21:59:38.949Z,86.83
2022-08-31T22:02:11.185Z,87.38
2022-08-31T22:04:40.701Z,88.17
2022-08-31T22:07:10.187Z,89.18
2022-08-31T22:09:40.245Z,89.70
2022-08-31T22:12:08.278Z,91.16
2022-08-31T22:14:41.297Z,92.08
2022-08-31T22:17:09.418Z,93.14
2022-08-31T22:19:40.678Z,93.62
2022-08-31T22:22:12.652Z,94.69
2022-08-31T22:24:40.471Z,96.08
2022-08-31T22:27:09.821Z,95.62
2022-08-31T22:29:37.945Z,94.82
2022-08-31T22:32:13.250Z,94.89
2022-08-31T22:34:40.758Z,95.25
2022-08-31T22:37:11.990Z,94.83
2022-08-31T22:39:39.828Z,95.74
2022-08-31T22:42:09.033Z,95.54
2022-08-31T22:44:39.756Z,93.81
2022-08-31T22:47:06.396Z,94.17
2022-08-31T22:49:33.218Z,93.98
2022-08-31T22:51:59.793Z,94.58
2022-08-31T22:54:26.671Z,94.88
2022-08-31T22:56:53.763Z,95.65
2022-08-31T22:59:27.219Z,96.34
2022-08-31T23:01:57.125Z,96.95
2022-08-31T23:04:26.383Z,97.98
2022-08-31T23:06:53.239Z,97.14
2022-08-31T23:09:22.089Z,97.31
2022-08-31T23:11:51.643Z,97.16
2022-08-31T23:14:21.039Z,97.36
2022-08-31T23:16:57.596Z,97.13
2022-08-31T23:19:33.419Z,96.69
2022-08-31T23:22:00.978Z,97.12
2022-08-31T23:24:44.750Z,97.88
2022-08-31T23:27:13.439Z,97.44
2022-08-31T23:29:47.848Z,96.59
2022-08-31T23:32:18.215Z,95.94
2022-08-31T23:34:46.660Z,96.97
2022-08-31T23:37:14.167Z,98.19
2022-08-31T23:39:46.147Z,98.86
2022-08-31T23:42:16.454Z,98.83
2022-08-31T23:44:44.874Z,98.57
2022-08-31T23:47:15.110Z,99.10
2022-08-31T23:49:43.862Z,99.28
2022-08-31T23:52:18.759Z,99.20
2022-08-31T23:54:46.885Z,100.00
2022-08-31T23:57:31.835Z,100.00
